Pagina principale
METAR-TAF:

METAR-TAF

Aeroporti :

Messina, Italia

latitudine: 38-12N, longitudine: 015-33E, altezza: 59 m

Osservazione

Il bollettino è stato emesso 36 minuti fa, alle 19:55 UTC
Vento 7 kt da sud-ovest con raffiche fino a 17 kt
Temperature 26°C
Umidità 70%
Pressione 1007 hPa
Visibilità 10 km o più
Poco nuvoloso ad un'altezza di 3000 ft

METAR: LICF 251955Z 22007G17KT 9999 FEW030 26/20 Q1007 RMK FEW QUK / QUL / VIS MAR 18 KM MON INVIS NC VIS MIN 9999

Ora: 22:31 (20:31 UTC)


TAF: mancante

Osservazioni e previsioni meteorologiche di più di 4000 aeroporti (messaggi METAR e TAF).

Le stazioni disponibili sono rappresentate dai dischi gialli e rossi sulla carta.

Puntare il mouse per vedere il nome della stazione.

Clicca sopra per visualizzare le osservazioni e previsioni meteorologiche.

Per cambiare la mappa : fare clic sui pulsanti verdi con una croce nera per ingrandire, il pulsante verde con un trattino per diminuire, o sulla freccia verde per le mappe adiacenti.


METAR-TAF: